Portada
METAR-TAF:

METAR-TAF

Aeropuertos :

Curazao, Antillas Neerlandesas

Aeropuerto Internacional Hato

latitud: 12-12N, longitud: 068-58W, altitud: 9 m

Observación

El informe se hizo hace 56 minutos, a las 15:00 UTC
Viento 5 kt con dirección variable
Temperatura 31°C
Humedad 49%
Presión 1014 hPa
Visibilidad 10 km o más
Escasas nubes a una altura de 2000 ft

METAR: TNCC 121500Z VRB05KT 9999 FEW020 31/19 Q1014 NOSIG

Hora: 11:56 (15:56 UTC)

Pronóstico

El informe se hizo hace 6 horas y 26 minutos, a las 09:30 UTC
Pronóstico válido del 12 a las 12 UTC al 13 a las 12 UTC
Viento 7 kt del este-sureste
Visibilidad 10 km o más
Nubes dispersas a una altura de 2000 ft
Temporalmente
del 12 a las 12 UTC al 12 a las 16 UTC
Cielo nuboso a una altura de 1400 ft

TAF: TNCC 120930Z 1212/1312 12007KT 9999 SCT020 TEMPO 1212/1216 BKN014

Observaciones y pronósticos meteorológicos de más de 4000 aeropuertos (mensajes METAR y TAF).

Los puntos amarillos y rojos representan las estaciones disponibles.

Ponga el ratón en el punto deseado para ver el nombre de la estación.

Haga clic para ver las observaciones y los pronósticos meteorológicos.

Para cambiar el mapa : haga clic en los botones verdes con una cruz de color negro para hacer un zoom, en el botón verde con un guión para alejar o en las flechas verdes para mapas adyacentes.


METAR-TAF: